Time;durP1;ratioP1;P1;durP2;ratioP2;P2;SDS_P1;SDS_P2;PMS_P1;PMS_P2;Temp;Humidity;BMP_temperature;BMP_pressure;BME280_temperature;BME280_humidity;BME280_pressure;Samples;Min_cycle;Max_cycle;Signal;HPM_P1;HPM_P2
2022/07/09 00:01:21;;;;;;;14.30;5.97;;;;;;;;;;5100109;28;20039;-70
2022/07/09 00:03:47;;;;;;;12.30;5.45;;;;;;;;;;5110257;28;20395;-70
2022/07/09 00:06:13;;;;;;;10.75;6.30;;;;;;;;;;5105873;28;20060;-70
2022/07/09 00:08:39;;;;;;;6.22;4.88;;;;;;;;;;5109376;28;20230;-70
2022/07/09 00:11:06;;;;;;;10.35;6.00;;;;;;;;;;5103289;28;20043;-70
2022/07/09 00:13:32;;;;;;;11.60;6.18;;;;;;;;;;5108518;28;20520;-70
2022/07/09 00:15:58;;;;;;;12.55;5.68;;;;;;;;;;5104959;28;20067;-70
2022/07/09 00:18:24;;;;;;;8.88;5.28;;;;;;;;;;5106748;28;20036;-70
2022/07/09 00:20:50;;;;;;;9.85;5.65;;;;;;;;;;5105736;28;20500;-70
2022/07/09 00:23:16;;;;;;;10.10;6.18;;;;;;;;;;5108811;28;20047;-70
2022/07/09 00:25:43;;;;;;;19.70;6.80;;;;;;;;;;5105411;28;20031;-70
2022/07/09 00:28:09;;;;;;;11.73;6.20;;;;;;;;;;5103323;27;20036;-70
2022/07/09 00:30:35;;;;;;;12.95;6.70;;;;;;;;;;5109400;27;20036;-69
2022/07/09 00:33:01;;;;;;;9.73;5.28;;;;;;;;;;5104052;27;20161;-70
2022/07/09 00:35:28;;;;;;;11.80;5.65;;;;;;;;;;5101595;28;20039;-70
2022/07/09 00:37:54;;;;;;;14.60;5.65;;;;;;;;;;5103357;28;20089;-70
2022/07/09 00:40:20;;;;;;;12.25;5.82;;;;;;;;;;5103310;28;20043;-70
2022/07/09 00:42:46;;;;;;;12.05;5.07;;;;;;;;;;5091613;28;20091;-70
2022/07/09 00:45:12;;;;;;;10.02;5.32;;;;;;;;;;5108165;28;20052;-70
2022/07/09 00:47:39;;;;;;;8.75;5.55;;;;;;;;;;5103228;28;20100;-70
2022/07/09 00:50:05;;;;;;;13.70;5.47;;;;;;;;;;5095223;28;20047;-70
2022/07/09 00:52:32;;;;;;;8.25;4.65;;;;;;;;;;5092027;28;20449;-70
2022/07/09 00:55:00;;;;;;;10.88;5.53;;;;;;;;;;5104713;28;20552;-70
2022/07/09 00:57:27;;;;;;;9.40;4.32;;;;;;;;;;5094585;28;20394;-70
2022/07/09 00:59:54;;;;;;;11.27;5.82;;;;;;;;;;5109980;27;20040;-70
2022/07/09 01:02:22;;;;;;;7.40;4.95;;;;;;;;;;5111047;27;20075;-70
2022/07/09 01:04:48;;;;;;;12.48;4.90;;;;;;;;;;5105185;28;20066;-70
2022/07/09 01:07:15;;;;;;;7.72;4.68;;;;;;;;;;5103251;28;20036;-70
2022/07/09 01:09:41;;;;;;;12.02;5.45;;;;;;;;;;5107247;28;20039;-70
2022/07/09 01:12:07;;;;;;;9.20;4.13;;;;;;;;;;5103220;28;20474;-70
2022/07/09 01:14:34;;;;;;;7.63;4.20;;;;;;;;;;5116316;28;20489;-70
2022/07/09 01:17:02;;;;;;;10.05;4.35;;;;;;;;;;5112462;27;20489;-70
2022/07/09 01:19:29;;;;;;;6.78;4.07;;;;;;;;;;5112071;28;20043;-70
2022/07/09 01:21:55;;;;;;;11.73;4.60;;;;;;;;;;5112955;28;20485;-70
2022/07/09 01:24:22;;;;;;;8.07;4.30;;;;;;;;;;5108433;28;20047;-70
2022/07/09 01:26:49;;;;;;;11.15;4.18;;;;;;;;;;5094120;28;20124;-70
2022/07/09 01:29:15;;;;;;;10.70;4.63;;;;;;;;;;5104291;28;20032;-70
2022/07/09 01:31:41;;;;;;;6.82;3.42;;;;;;;;;;5112174;28;20044;-70
2022/07/09 01:34:07;;;;;;;10.38;4.18;;;;;;;;;;5104834;28;20517;-70
2022/07/09 01:36:34;;;;;;;10.27;3.17;;;;;;;;;;5115284;22;20052;-82
2022/07/09 01:39:00;;;;;;;6.32;3.25;;;;;;;;;;5063593;28;20046;-81
2022/07/09 01:41:26;;;;;;;11.50;3.83;;;;;;;;;;5059059;28;20066;-81
2022/07/09 01:43:52;;;;;;;9.65;3.92;;;;;;;;;;5090341;28;20139;-81
2022/07/09 01:46:18;;;;;;;7.60;2.90;;;;;;;;;;5043756;28;20638;-81
2022/07/09 01:48:45;;;;;;;7.03;3.17;;;;;;;;;;5077377;28;20036;-81
2022/07/09 01:51:13;;;;;;;6.72;3.50;;;;;;;;;;5064004;28;20365;-81
2022/07/09 01:53:39;;;;;;;9.07;2.58;;;;;;;;;;5060008;28;20101;-81
2022/07/09 01:56:07;;;;;;;8.77;4.65;;;;;;;;;;5061939;28;20197;-81
2022/07/09 01:58:33;;;;;;;7.82;3.67;;;;;;;;;;5073149;28;20040;-81
2022/07/09 02:00:59;;;;;;;5.53;3.22;;;;;;;;;;5077825;28;20127;-82
2022/07/09 02:03:25;;;;;;;8.88;3.88;;;;;;;;;;5065578;28;20036;-82
2022/07/09 02:05:52;;;;;;;7.95;3.50;;;;;;;;;;5079700;28;20143;-82
2022/07/09 02:08:18;;;;;;;6.78;3.30;;;;;;;;;;5068146;28;20048;-82
2022/07/09 02:10:45;;;;;;;7.40;3.72;;;;;;;;;;5077002;28;20387;-82
2022/07/09 02:13:14;;;;;;;6.13;3.90;;;;;;;;;;5057642;28;20119;-81
2022/07/09 02:15:40;;;;;;;7.68;3.80;;;;;;;;;;5040309;28;20033;-82
2022/07/09 02:18:06;;;;;;;7.15;3.92;;;;;;;;;;5044996;28;20060;-82
2022/07/09 02:20:32;;;;;;;5.07;3.20;;;;;;;;;;5039690;28;20092;-82
2022/07/09 02:22:58;;;;;;;6.93;3.83;;;;;;;;;;5032157;28;20093;-82
2022/07/09 02:25:24;;;;;;;6.35;3.42;;;;;;;;;;5074480;28;20041;-82
2022/07/09 02:27:50;;;;;;;12.50;3.75;;;;;;;;;;5022896;28;20037;-82
2022/07/09 02:30:17;;;;;;;8.70;3.08;;;;;;;;;;5065487;28;20045;-82
2022/07/09 02:32:43;;;;;;;5.55;3.35;;;;;;;;;;5039948;28;20043;-82
2022/07/09 02:35:09;;;;;;;6.22;3.13;;;;;;;;;;5039613;28;20448;-82
2022/07/09 02:37:36;;;;;;;6.90;3.15;;;;;;;;;;5056574;28;20056;-82
2022/07/09 02:40:02;;;;;;;6.68;3.22;;;;;;;;;;5006927;28;20052;-82
2022/07/09 02:42:28;;;;;;;5.88;3.55;;;;;;;;;;5056196;28;20044;-82
2022/07/09 02:44:54;;;;;;;6.38;3.10;;;;;;;;;;5025312;28;20040;-82
2022/07/09 02:47:20;;;;;;;7.40;3.10;;;;;;;;;;5056012;28;20036;-82
2022/07/09 02:49:46;;;;;;;7.35;4.28;;;;;;;;;;5055881;28;20174;-82
2022/07/09 02:52:12;;;;;;;6.05;3.97;;;;;;;;;;5057845;28;20105;-82
2022/07/09 02:54:38;;;;;;;5.45;3.45;;;;;;;;;;5019215;28;20074;-82
2022/07/09 02:57:05;;;;;;;6.85;3.20;;;;;;;;;;5038968;28;20447;-83
2022/07/09 02:59:31;;;;;;;7.80;3.78;;;;;;;;;;5056235;28;20090;-82
2022/07/09 03:01:57;;;;;;;7.32;3.83;;;;;;;;;;5038959;28;20044;-82
2022/07/09 03:04:23;;;;;;;9.63;4.13;;;;;;;;;;5017480;28;20097;-82
2022/07/09 03:06:50;;;;;;;7.28;4.00;;;;;;;;;;5031131;28;20068;-82
2022/07/09 03:09:16;;;;;;;6.82;3.88;;;;;;;;;;5038683;28;20430;-82
2022/07/09 03:11:42;;;;;;;7.78;4.03;;;;;;;;;;5038773;28;20033;-82
2022/07/09 03:14:08;;;;;;;8.07;4.93;;;;;;;;;;5038691;28;20043;-82
2022/07/09 03:16:34;;;;;;;7.78;4.50;;;;;;;;;;5012513;28;20095;-82
2022/07/09 03:19:00;;;;;;;9.98;5.03;;;;;;;;;;5036026;28;20037;-82
2022/07/09 03:21:26;;;;;;;6.13;4.13;;;;;;;;;;5055348;28;20052;-82
2022/07/09 03:23:53;;;;;;;8.05;3.95;;;;;;;;;;5018524;28;20558;-82
2022/07/09 03:26:19;;;;;;;7.30;4.75;;;;;;;;;;5050455;28;20040;-82
2022/07/09 03:28:46;;;;;;;6.15;4.10;;;;;;;;;;5057151;28;20041;-82
2022/07/09 03:31:13;;;;;;;8.45;3.58;;;;;;;;;;5046982;28;20045;-82
2022/07/09 03:33:39;;;;;;;7.07;3.88;;;;;;;;;;5039575;28;20036;-82
2022/07/09 03:36:05;;;;;;;10.48;4.65;;;;;;;;;;5043754;28;20052;-81
2022/07/09 03:38:31;;;;;;;7.25;4.43;;;;;;;;;;5055033;28;20052;-81
2022/07/09 03:40:58;;;;;;;8.10;4.28;;;;;;;;;;5050136;28;20064;-82
2022/07/09 03:43:24;;;;;;;9.23;4.20;;;;;;;;;;5048239;28;20446;-82
2022/07/09 03:45:50;;;;;;;8.32;4.15;;;;;;;;;;5019124;28;20152;-83
2022/07/09 03:48:17;;;;;;;9.82;4.75;;;;;;;;;;5021687;28;20080;-83
2022/07/09 03:50:43;;;;;;;6.63;4.15;;;;;;;;;;5054893;28;20036;-83
2022/07/09 03:53:09;;;;;;;6.07;4.00;;;;;;;;;;5047251;28;20033;-82
2022/07/09 03:55:35;;;;;;;7.15;4.22;;;;;;;;;;5030371;28;20045;-83
2022/07/09 03:58:01;;;;;;;10.07;5.00;;;;;;;;;;5049190;28;20121;-83
2022/07/09 04:00:28;;;;;;;10.65;5.75;;;;;;;;;;5054824;28;20051;-83
2022/07/09 04:02:54;;;;;;;7.93;3.78;;;;;;;;;;5044443;28;20040;-82
2022/07/09 04:05:20;;;;;;;6.28;3.80;;;;;;;;;;5045972;28;20174;-81
2022/07/09 04:07:46;;;;;;;4.60;3.65;;;;;;;;;;5038959;28;20566;-82
2022/07/09 04:10:12;;;;;;;5.70;4.05;;;;;;;;;;5064314;28;20186;-83
2022/07/09 04:12:39;;;;;;;9.30;4.15;;;;;;;;;;5037081;28;20055;-83
2022/07/09 04:15:08;;;;;;;6.82;4.28;;;;;;;;;;5037649;28;20071;-82
2022/07/09 04:17:37;;;;;;;8.60;5.30;;;;;;;;;;5054065;28;20052;-83
2022/07/09 04:20:03;;;;;;;6.85;4.05;;;;;;;;;;5057874;28;20190;-83
2022/07/09 04:22:32;;;;;;;6.32;4.00;;;;;;;;;;5055475;28;20646;-82
2022/07/09 04:24:58;;;;;;;5.18;3.17;;;;;;;;;;5074790;28;20041;-82
2022/07/09 04:27:24;;;;;;;9.98;4.95;;;;;;;;;;5048127;28;20036;-82
2022/07/09 04:29:50;;;;;;;6.50;3.70;;;;;;;;;;5024524;28;20529;-82
2022/07/09 04:32:17;;;;;;;6.57;4.25;;;;;;;;;;5053463;28;20040;-82
2022/07/09 04:34:43;;;;;;;6.97;3.78;;;;;;;;;;5054684;28;20041;-83
2022/07/09 04:37:09;;;;;;;9.15;4.43;;;;;;;;;;5019391;28;20053;-82
2022/07/09 04:39:35;;;;;;;6.57;3.15;;;;;;;;;;5045245;28;20044;-82
2022/07/09 04:42:01;;;;;;;8.05;4.22;;;;;;;;;;5044530;28;20048;-82
2022/07/09 04:44:28;;;;;;;10.05;5.22;;;;;;;;;;5037038;28;20140;-83
2022/07/09 04:47:03;;;;;;;8.00;4.75;;;;;;;;;;5037166;28;20032;-83
2022/07/09 04:49:32;;;;;;;8.55;4.15;;;;;;;;;;5009669;28;20082;-83
2022/07/09 04:52:01;;;;;;;5.88;4.03;;;;;;;;;;5055876;28;20039;-83
2022/07/09 04:54:28;;;;;;;6.57;3.63;;;;;;;;;;5020269;28;20033;-83
2022/07/09 04:57:00;;;;;;;7.63;3.60;;;;;;;;;;5020344;28;20042;-83
2022/07/09 04:59:30;;;;;;;6.15;3.85;;;;;;;;;;5024037;28;20035;-79
2022/07/09 05:01:56;;;;;;;5.93;3.58;;;;;;;;;;5054821;28;20575;-78
2022/07/09 05:04:22;;;;;;;5.82;3.63;;;;;;;;;;5053966;28;20048;-79
2022/07/09 05:06:48;;;;;;;4.93;2.88;;;;;;;;;;5037431;28;20056;-79
2022/07/09 05:09:14;;;;;;;8.07;3.53;;;;;;;;;;5052543;28;20048;-78
2022/07/09 05:11:40;;;;;;;8.48;3.50;;;;;;;;;;5037598;28;20396;-78
2022/07/09 05:14:06;;;;;;;7.68;2.90;;;;;;;;;;5033358;28;20107;-78
2022/07/09 05:16:32;;;;;;;5.57;2.90;;;;;;;;;;5053354;28;20068;-78
2022/07/09 05:18:58;;;;;;;4.22;2.80;;;;;;;;;;5056442;28;20124;-78
2022/07/09 05:21:25;;;;;;;5.40;3.00;;;;;;;;;;5051137;28;20045;-78
2022/07/09 05:23:51;;;;;;;5.97;2.55;;;;;;;;;;5020946;28;20040;-78
2022/07/09 05:26:17;;;;;;;7.80;3.25;;;;;;;;;;5036667;28;20033;-78
2022/07/09 05:28:43;;;;;;;5.75;2.92;;;;;;;;;;5030169;28;20115;-78
2022/07/09 05:31:09;;;;;;;6.13;3.05;;;;;;;;;;5036162;28;20641;-79
2022/07/09 05:33:35;;;;;;;5.05;2.95;;;;;;;;;;5051941;28;20641;-79
2022/07/09 05:36:01;;;;;;;3.88;2.75;;;;;;;;;;5053299;28;20049;-79
2022/07/09 05:38:28;;;;;;;6.22;2.95;;;;;;;;;;5034620;28;20045;-78
2022/07/09 05:40:54;;;;;;;7.07;2.60;;;;;;;;;;5028175;28;20037;-78
2022/07/09 05:43:22;;;;;;;4.88;3.25;;;;;;;;;;5029783;28;20369;-78
2022/07/09 05:45:48;;;;;;;7.50;3.35;;;;;;;;;;5002396;28;20037;-78
2022/07/09 05:48:15;;;;;;;17.63;3.83;;;;;;;;;;5037537;28;20108;-79
2022/07/09 05:50:41;;;;;;;5.82;2.95;;;;;;;;;;5032706;28;20056;-79
2022/07/09 05:53:10;;;;;;;4.32;2.58;;;;;;;;;;5051815;28;20177;-78
2022/07/09 05:55:37;;;;;;;5.80;3.20;;;;;;;;;;5048899;28;20055;-78
2022/07/09 05:58:04;;;;;;;6.53;2.92;;;;;;;;;;5036930;28;20177;-79
2022/07/09 06:00:30;;;;;;;5.70;2.70;;;;;;;;;;5050033;28;20446;-79
2022/07/09 06:02:56;;;;;;;5.35;2.60;;;;;;;;;;5053705;28;20056;-78
2022/07/09 06:05:22;;;;;;;4.97;2.10;;;;;;;;;;5057534;28;20040;-78
2022/07/09 06:07:48;;;;;;;5.53;2.40;;;;;;;;;;5033040;28;20094;-79
2022/07/09 06:10:17;;;;;;;7.93;2.40;;;;;;;;;;5054551;28;20047;-78
2022/07/09 06:12:52;;;;;;;4.60;2.50;;;;;;;;;;5036043;28;20042;-78
2022/07/09 06:15:19;;;;;;;4.72;2.67;;;;;;;;;;5038943;28;20062;-78
2022/07/09 06:17:45;;;;;;;3.38;2.10;;;;;;;;;;5055545;28;20511;-78
2022/07/09 06:20:11;;;;;;;2.72;1.90;;;;;;;;;;5070813;28;20043;-78
2022/07/09 06:22:38;;;;;;;3.88;2.10;;;;;;;;;;5050339;28;20119;-78
2022/07/09 06:25:05;;;;;;;5.93;2.42;;;;;;;;;;5058431;28;20043;-82
2022/07/09 06:27:31;;;;;;;5.63;2.55;;;;;;;;;;5028554;28;20476;-78
2022/07/09 06:29:57;;;;;;;7.32;2.75;;;;;;;;;;5020736;28;20040;-78
2022/07/09 06:32:23;;;;;;;8.85;2.83;;;;;;;;;;5034132;28;20033;-78
2022/07/09 06:34:49;;;;;;;4.20;2.03;;;;;;;;;;5049519;28;20040;-78
2022/07/09 06:37:16;;;;;;;4.18;2.47;;;;;;;;;;5029095;28;20101;-78
2022/07/09 06:39:45;;;;;;;10.02;2.47;;;;;;;;;;5049699;28;20036;-78
2022/07/09 06:42:11;;;;;;;7.63;3.05;;;;;;;;;;5021699;28;20040;-78
2022/07/09 06:44:38;;;;;;;4.55;2.47;;;;;;;;;;5055076;28;20131;-78
2022/07/09 06:47:04;;;;;;;6.25;2.75;;;;;;;;;;5052985;28;20060;-78
2022/07/09 06:49:31;;;;;;;7.82;2.50;;;;;;;;;;5037249;28;20131;-78
2022/07/09 06:51:57;;;;;;;5.38;2.45;;;;;;;;;;5049733;28;20060;-79
2022/07/09 06:54:23;;;;;;;14.82;2.80;;;;;;;;;;5037837;28;20045;-78
2022/07/09 06:56:49;;;;;;;14.40;4.10;;;;;;;;;;5002840;28;20468;-78
2022/07/09 06:59:18;;;;;;;6.55;2.70;;;;;;;;;;5027721;28;20048;-78
2022/07/09 07:01:44;;;;;;;7.10;2.58;;;;;;;;;;5041842;28;20115;-78
2022/07/09 07:04:14;;;;;;;3.13;2.13;;;;;;;;;;5044603;28;20078;-78
2022/07/09 07:06:46;;;;;;;9.20;2.63;;;;;;;;;;5044992;28;20101;-78
2022/07/09 07:09:13;;;;;;;6.22;2.65;;;;;;;;;;5035771;28;20076;-78
2022/07/09 07:11:39;;;;;;;9.90;3.97;;;;;;;;;;5041094;28;20032;-78
2022/07/09 07:14:06;;;;;;;15.60;3.55;;;;;;;;;;5016449;28;20048;-78
2022/07/09 07:16:34;;;;;;;10.15;2.97;;;;;;;;;;5047825;28;20459;-78
2022/07/09 07:19:00;;;;;;;6.80;2.47;;;;;;;;;;5056727;28;20047;-78
2022/07/09 07:21:26;;;;;;;5.60;2.42;;;;;;;;;;5037176;28;20037;-77
2022/07/09 07:23:53;;;;;;;6.03;2.10;;;;;;;;;;5032004;28;20649;-78
2022/07/09 07:26:19;;;;;;;6.65;3.28;;;;;;;;;;5034165;28;20045;-79
2022/07/09 07:28:45;;;;;;;7.80;2.58;;;;;;;;;;5035101;28;20060;-78
2022/07/09 07:31:11;;;;;;;4.72;2.33;;;;;;;;;;5053267;28;20052;-78
2022/07/09 07:33:38;;;;;;;6.15;2.53;;;;;;;;;;5035941;28;20115;-78
2022/07/09 07:36:06;;;;;;;5.53;2.03;;;;;;;;;;5035827;28;20616;-78
2022/07/09 07:38:33;;;;;;;6.50;2.35;;;;;;;;;;5036386;28;20105;-79
2022/07/09 07:40:59;;;;;;;6.72;2.42;;;;;;;;;;5049049;28;20032;-79
2022/07/09 07:43:25;;;;;;;7.88;2.65;;;;;;;;;;5031937;28;20040;-79
2022/07/09 07:45:51;;;;;;;7.97;2.53;;;;;;;;;;5037763;28;20037;-79
2022/07/09 07:48:18;;;;;;;7.43;1.95;;;;;;;;;;5024839;28;20039;-78
2022/07/09 07:50:44;;;;;;;13.40;2.97;;;;;;;;;;5049954;28;20507;-78
2022/07/09 07:53:13;;;;;;;9.95;2.90;;;;;;;;;;5035553;28;20047;-79
2022/07/09 07:55:39;;;;;;;5.25;2.88;;;;;;;;;;5023560;28;20455;-80
2022/07/09 07:58:05;;;;;;;6.97;2.65;;;;;;;;;;5052954;28;20041;-80
2022/07/09 08:00:32;;;;;;;6.85;2.00;;;;;;;;;;5054821;28;20040;-79
2022/07/09 08:02:58;;;;;;;7.28;2.72;;;;;;;;;;5034840;28;20045;-79
2022/07/09 08:05:25;;;;;;;5.70;2.33;;;;;;;;;;5063033;28;20373;-80
2022/07/09 08:07:51;;;;;;;4.75;2.47;;;;;;;;;;5035796;28;20364;-79
2022/07/09 08:10:17;;;;;;;11.68;2.42;;;;;;;;;;5038985;28;20059;-80
2022/07/09 08:12:43;;;;;;;6.85;2.42;;;;;;;;;;5054252;28;20045;-79
2022/07/09 08:15:10;;;;;;;5.05;2.22;;;;;;;;;;5038763;28;20024;-80
2022/07/09 08:17:36;;;;;;;5.72;2.30;;;;;;;;;;5037809;28;20108;-79
2022/07/09 08:20:04;;;;;;;6.72;2.50;;;;;;;;;;5049343;28;20048;-79
2022/07/09 08:22:30;;;;;;;8.90;3.22;;;;;;;;;;5050087;28;20075;-79
2022/07/09 08:24:56;;;;;;;5.55;2.20;;;;;;;;;;5036176;28;20045;-79
2022/07/09 08:27:23;;;;;;;4.97;2.05;;;;;;;;;;5018125;28;20319;-79
2022/07/09 08:29:49;;;;;;;4.47;1.92;;;;;;;;;;5049589;28;20044;-79
2022/07/09 08:32:15;;;;;;;4.20;1.80;;;;;;;;;;5035202;28;20071;-79
2022/07/09 08:34:42;;;;;;;4.22;2.25;;;;;;;;;;5042457;28;20629;-79
2022/07/09 08:37:08;;;;;;;7.03;2.60;;;;;;;;;;5033653;28;20512;-79
2022/07/09 08:39:34;;;;;;;10.35;2.28;;;;;;;;;;5016518;28;20059;-79
2022/07/09 08:42:00;;;;;;;4.63;2.22;;;;;;;;;;4999059;28;20041;-79
2022/07/09 08:44:30;;;;;;;5.55;2.70;;;;;;;;;;5035332;28;20040;-79
2022/07/09 08:46:58;;;;;;;4.22;1.70;;;;;;;;;;5050962;28;20123;-79
2022/07/09 08:49:26;;;;;;;6.63;2.13;;;;;;;;;;5037005;28;20487;-79
2022/07/09 08:51:52;;;;;;;6.53;2.53;;;;;;;;;;5020421;28;20447;-79
2022/07/09 08:54:20;;;;;;;5.53;2.40;;;;;;;;;;5035728;28;20036;-79
2022/07/09 08:56:47;;;;;;;5.20;2.30;;;;;;;;;;5051548;28;20541;-79
2022/07/09 08:59:13;;;;;;;3.72;1.73;;;;;;;;;;5036407;28;20089;-79
2022/07/09 09:01:41;;;;;;;4.35;1.83;;;;;;;;;;5053896;28;20036;-78
2022/07/09 09:04:07;;;;;;;4.47;2.20;;;;;;;;;;5052185;28;20498;-78
2022/07/09 09:06:37;;;;;;;11.05;2.92;;;;;;;;;;5036626;28;20056;-79
2022/07/09 09:09:03;;;;;;;9.80;2.75;;;;;;;;;;5053157;28;20127;-79
2022/07/09 09:11:31;;;;;;;5.95;2.90;;;;;;;;;;5052198;28;20032;-78
2022/07/09 09:13:57;;;;;;;4.65;2.08;;;;;;;;;;5034192;28;20041;-78
2022/07/09 09:16:24;;;;;;;3.80;2.00;;;;;;;;;;5050761;28;20037;-78
2022/07/09 09:18:51;;;;;;;5.10;2.05;;;;;;;;;;5049664;28;20480;-78
2022/07/09 09:21:19;;;;;;;4.55;2.10;;;;;;;;;;5051568;28;20044;-79
2022/07/09 09:23:46;;;;;;;7.25;3.00;;;;;;;;;;5029904;28;20037;-78
2022/07/09 09:26:13;;;;;;;7.38;2.78;;;;;;;;;;5029875;28;20071;-78
2022/07/09 09:28:55;;;;;;;8.02;2.47;;;;;;;;;;5048371;28;20043;-79
2022/07/09 09:31:29;;;;;;;11.00;2.72;;;;;;;;;;5045953;28;20691;-80
2022/07/09 09:34:09;;;;;;;5.30;2.50;;;;;;;;;;5054401;28;20580;-79
2022/07/09 09:36:38;;;;;;;9.50;2.33;;;;;;;;;;5046829;28;20469;-83
2022/07/09 09:39:18;;;;;;;5.07;2.25;;;;;;;;;;5028687;28;20052;-81
2022/07/09 09:41:46;;;;;;;3.65;1.98;;;;;;;;;;5052790;28;20037;-86
2022/07/09 09:44:13;;;;;;;6.93;2.60;;;;;;;;;;5052968;28;20271;-81
2022/07/09 09:46:41;;;;;;;7.68;2.47;;;;;;;;;;5036070;28;20112;-82
2022/07/09 09:49:08;;;;;;;16.70;3.60;;;;;;;;;;5066925;28;20145;-82
2022/07/09 09:51:38;;;;;;;6.43;2.25;;;;;;;;;;5054093;28;20045;-81
2022/07/09 09:54:05;;;;;;;6.07;2.35;;;;;;;;;;5039704;28;20032;-82
2022/07/09 09:56:33;;;;;;;7.28;3.15;;;;;;;;;;5044441;28;20044;-82
2022/07/09 09:58:59;;;;;;;5.28;2.28;;;;;;;;;;5031419;28;20536;-82
2022/07/09 10:01:26;;;;;;;4.95;2.17;;;;;;;;;;5038211;28;20037;-83
2022/07/09 10:03:53;;;;;;;5.10;2.55;;;;;;;;;;5032189;28;20056;-82
2022/07/09 10:06:19;;;;;;;8.68;3.13;;;;;;;;;;5059708;28;20060;-83
2022/07/09 10:08:46;;;;;;;4.85;2.95;;;;;;;;;;5014769;28;20045;-82
2022/07/09 10:11:12;;;;;;;6.63;2.60;;;;;;;;;;5059558;28;20121;-82
2022/07/09 10:13:38;;;;;;;9.50;3.20;;;;;;;;;;5046128;28;20681;-82
2022/07/09 10:16:05;;;;;;;6.05;2.55;;;;;;;;;;5029026;28;20052;-82
2022/07/09 10:18:31;;;;;;;5.13;2.30;;;;;;;;;;5019996;28;20065;-81
2022/07/09 10:20:57;;;;;;;8.90;2.72;;;;;;;;;;5033499;28;20135;-81
2022/07/09 10:23:24;;;;;;;8.60;2.90;;;;;;;;;;5034429;28;20041;-80
2022/07/09 10:25:55;;;;;;;8.20;2.20;;;;;;;;;;5023866;28;20068;-85
2022/07/09 10:28:22;;;;;;;7.15;2.20;;;;;;;;;;5031114;28;20041;-81
2022/07/09 10:30:48;;;;;;;10.15;2.22;;;;;;;;;;5036459;28;20495;-81
2022/07/09 10:33:14;;;;;;;8.98;2.13;;;;;;;;;;5069417;28;20120;-81
2022/07/09 10:35:45;;;;;;;5.93;2.58;;;;;;;;;;5042638;28;20044;-81
2022/07/09 10:38:12;;;;;;;6.07;2.83;;;;;;;;;;5042806;28;20111;-81
2022/07/09 10:40:39;;;;;;;7.50;2.50;;;;;;;;;;5024689;28;20075;-81
2022/07/09 10:43:05;;;;;;;7.93;2.13;;;;;;;;;;5059587;28;20400;-81
2022/07/09 10:45:39;;;;;;;4.95;1.92;;;;;;;;;;5035842;28;20120;-80
2022/07/09 10:48:06;;;;;;;6.85;2.10;;;;;;;;;;5036059;28;20048;-80
2022/07/09 10:50:33;;;;;;;10.07;2.03;;;;;;;;;;5065506;28;20048;-81
2022/07/09 10:53:00;;;;;;;5.55;1.90;;;;;;;;;;5033182;28;20049;-80
2022/07/09 10:55:27;;;;;;;6.10;3.13;;;;;;;;;;5031519;28;20044;-77
2022/07/09 10:57:54;;;;;;;5.45;1.95;;;;;;;;;;5058096;28;20049;-79
2022/07/09 11:00:21;;;;;;;3.97;1.52;;;;;;;;;;5044749;28;20489;-78
2022/07/09 11:02:51;;;;;;;5.35;1.95;;;;;;;;;;5051345;28;20045;-78
2022/07/09 11:05:18;;;;;;;4.60;1.63;;;;;;;;;;5031568;28;20154;-80
2022/07/09 11:07:54;;;;;;;7.35;2.10;;;;;;;;;;5052021;28;20396;-80
2022/07/09 11:10:20;;;;;;;3.40;1.55;;;;;;;;;;5043353;28;20040;-79
2022/07/09 11:12:49;;;;;;;3.38;1.55;;;;;;;;;;5019039;28;20533;-80
2022/07/09 11:15:20;;;;;;;4.85;1.70;;;;;;;;;;5048659;28;20126;-81
2022/07/09 11:18:00;;;;;;;4.07;1.23;;;;;;;;;;5016943;28;20041;-84
2022/07/09 11:20:30;;;;;;;4.85;1.33;;;;;;;;;;5028962;28;20465;-81
2022/07/09 11:22:56;;;;;;;4.53;1.52;;;;;;;;;;5016810;28;20053;-81
2022/07/09 11:25:24;;;;;;;5.38;1.65;;;;;;;;;;5022241;28;20570;-83
2022/07/09 11:27:50;;;;;;;8.07;2.35;;;;;;;;;;5061557;28;20044;-79
2022/07/09 11:30:17;;;;;;;4.18;1.58;;;;;;;;;;5034645;28;20045;-77
2022/07/09 11:32:44;;;;;;;3.33;1.58;;;;;;;;;;5041509;28;20360;-77
2022/07/09 11:35:11;;;;;;;5.00;2.45;;;;;;;;;;5040819;28;20132;-78
2022/07/09 11:37:38;;;;;;;4.40;1.60;;;;;;;;;;5054113;28;20060;-77
2022/07/09 11:40:05;;;;;;;3.47;1.20;;;;;;;;;;5054717;28;20365;-77
2022/07/09 11:42:31;;;;;;;5.32;1.50;;;;;;;;;;5054809;28;20246;-78
2022/07/09 11:44:59;;;;;;;3.60;1.65;;;;;;;;;;5054351;28;20149;-78
2022/07/09 11:47:55;;;;;;;3.92;1.23;;;;;;;;;;5049956;28;20048;-78
2022/07/09 11:50:21;;;;;;;5.03;1.30;;;;;;;;;;5028606;28;20048;-78
2022/07/09 11:52:51;;;;;;;3.60;1.20;;;;;;;;;;5032922;28;20342;-77
2022/07/09 11:55:18;;;;;;;4.90;1.45;;;;;;;;;;5022395;28;20037;-78
2022/07/09 11:57:54;;;;;;;5.63;1.40;;;;;;;;;;5025211;28;20078;-78
2022/07/09 12:00:28;;;;;;;3.85;1.40;;;;;;;;;;5041139;28;20067;-78
2022/07/09 12:02:59;;;;;;;4.55;1.38;;;;;;;;;;5051064;28;20612;-78
2022/07/09 12:05:27;;;;;;;4.25;1.20;;;;;;;;;;5042027;28;20392;-78
2022/07/09 12:07:53;;;;;;;2.10;1.00;;;;;;;;;;5033297;28;20421;-78
2022/07/09 12:10:25;;;;;;;4.13;1.27;;;;;;;;;;5053579;28;20086;-78
2022/07/09 12:12:51;;;;;;;2.67;1.10;;;;;;;;;;5049154;28;20105;-78
2022/07/09 12:15:18;;;;;;;5.50;1.33;;;;;;;;;;5050959;28;20120;-78
2022/07/09 12:17:44;;;;;;;2.53;1.27;;;;;;;;;;5041425;28;20068;-78
2022/07/09 12:20:10;;;;;;;3.70;1.20;;;;;;;;;;5035365;28;20040;-78
2022/07/09 12:22:36;;;;;;;3.55;1.67;;;;;;;;;;5053219;28;20083;-78
2022/07/09 12:25:03;;;;;;;2.88;1.30;;;;;;;;;;5037265;28;20044;-78
2022/07/09 12:27:29;;;;;;;6.15;1.40;;;;;;;;;;5052869;28;20036;-78
2022/07/09 12:29:55;;;;;;;3.42;1.35;;;;;;;;;;5031635;28;20088;-78
2022/07/09 12:32:21;;;;;;;3.75;1.50;;;;;;;;;;5032432;28;20210;-78
2022/07/09 12:34:47;;;;;;;4.82;1.75;;;;;;;;;;5032446;28;20032;-77
2022/07/09 12:37:13;;;;;;;3.83;1.92;;;;;;;;;;5051915;28;20048;-78
2022/07/09 12:39:39;;;;;;;7.60;1.83;;;;;;;;;;5022480;28;20062;-78
2022/07/09 12:42:06;;;;;;;5.07;1.60;;;;;;;;;;5050505;28;20397;-77
2022/07/09 12:44:32;;;;;;;5.78;1.50;;;;;;;;;;5053863;28;20044;-77
2022/07/09 12:46:58;;;;;;;3.20;1.88;;;;;;;;;;5050497;28;20040;-77
2022/07/09 12:49:24;;;;;;;6.18;1.52;;;;;;;;;;5054429;28;20785;-78
2022/07/09 12:51:50;;;;;;;4.15;1.48;;;;;;;;;;5032716;28;20191;-77
2022/07/09 12:54:16;;;;;;;4.85;2.05;;;;;;;;;;5019086;28;20135;-78
2022/07/09 12:56:42;;;;;;;5.35;1.80;;;;;;;;;;5037646;28;20052;-77
2022/07/09 12:59:08;;;;;;;5.82;1.70;;;;;;;;;;5035693;28;20051;-78
2022/07/09 13:01:35;;;;;;;5.00;1.13;;;;;;;;;;5037541;28;20364;-77
2022/07/09 13:04:01;;;;;;;8.00;2.25;;;;;;;;;;5035277;28;20180;-78
2022/07/09 13:06:33;;;;;;;5.15;1.70;;;;;;;;;;5051161;28;20292;-78
2022/07/09 13:08:59;;;;;;;;;;;;;;;;;;5042107;28;20080;-78
2022/07/09 13:11:25;;;;;;;7.78;2.13;;;;;;;;;;5045391;28;19947;-78
2022/07/09 13:13:52;;;;;;;3.95;1.80;;;;;;;;;;5016396;28;20494;-78
2022/07/09 13:16:18;;;;;;;5.40;1.45;;;;;;;;;;5050674;28;20058;-78
2022/07/09 13:18:44;;;;;;;1.77;1.13;;;;;;;;;;5049732;28;20115;-78
2022/07/09 13:21:10;;;;;;;3.55;1.58;;;;;;;;;;5035450;28;20048;-78
2022/07/09 13:23:37;;;;;;;10.60;2.30;;;;;;;;;;5036648;28;20438;-78
2022/07/09 13:26:04;;;;;;;5.00;1.83;;;;;;;;;;5052629;28;20160;-78
2022/07/09 13:28:31;;;;;;;3.80;1.60;;;;;;;;;;5047824;28;20080;-78
2022/07/09 13:30:58;;;;;;;5.43;2.15;;;;;;;;;;5054639;28;20479;-78
2022/07/09 13:33:24;;;;;;;4.22;1.30;;;;;;;;;;5029406;28;20036;-78
2022/07/09 13:35:50;;;;;;;3.30;1.70;;;;;;;;;;5032657;28;20124;-78
2022/07/09 13:38:16;;;;;;;3.95;1.63;;;;;;;;;;5057228;28;20448;-78
2022/07/09 13:40:42;;;;;;;5.00;1.95;;;;;;;;;;5034042;28;20119;-78
2022/07/09 13:43:09;;;;;;;7.88;1.58;;;;;;;;;;5047980;28;20124;-78
2022/07/09 13:45:35;;;;;;;8.70;2.40;;;;;;;;;;5046766;28;20045;-78
2022/07/09 13:48:01;;;;;;;7.20;2.08;;;;;;;;;;5049134;28;20045;-78
2022/07/09 13:50:27;;;;;;;5.35;2.30;;;;;;;;;;5047084;28;20047;-78
2022/07/09 13:52:53;;;;;;;4.57;1.80;;;;;;;;;;5014058;28;20083;-78
2022/07/09 13:55:19;;;;;;;6.30;2.85;;;;;;;;;;5049090;28;20052;-78
2022/07/09 13:57:45;;;;;;;9.45;2.25;;;;;;;;;;5031888;28;20052;-77
2022/07/09 14:00:12;;;;;;;7.95;2.50;;;;;;;;;;5019244;28;20444;-78
2022/07/09 14:02:38;;;;;;;7.05;2.33;;;;;;;;;;5021927;28;20392;-78
2022/07/09 14:05:05;;;;;;;3.55;2.17;;;;;;;;;;5025283;28;20056;-78
2022/07/09 14:07:32;;;;;;;5.50;2.03;;;;;;;;;;5036878;28;20046;-78
2022/07/09 14:09:58;;;;;;;8.27;3.17;;;;;;;;;;5020905;28;20120;-78
2022/07/09 14:12:24;;;;;;;6.60;2.20;;;;;;;;;;5033313;28;20036;-78
2022/07/09 14:14:51;;;;;;;4.35;1.92;;;;;;;;;;5042783;28;20033;-78
2022/07/09 14:17:17;;;;;;;5.28;2.28;;;;;;;;;;5049563;28;20191;-78
2022/07/09 14:19:44;;;;;;;5.45;2.28;;;;;;;;;;5050262;28;20037;-78
2022/07/09 14:22:10;;;;;;;3.00;1.60;;;;;;;;;;5046181;28;20413;-78
2022/07/09 14:24:36;;;;;;;2.88;1.33;;;;;;;;;;5015629;28;20124;-78
2022/07/09 14:27:02;;;;;;;4.03;1.40;;;;;;;;;;5066498;28;20504;-78
2022/07/09 14:29:28;;;;;;;6.18;1.50;;;;;;;;;;5018712;28;20044;-78
2022/07/09 14:31:55;;;;;;;3.15;1.35;;;;;;;;;;5054236;28;20037;-78
2022/07/09 14:34:21;;;;;;;2.92;1.00;;;;;;;;;;5031075;28;20488;-78
2022/07/09 14:36:50;;;;;;;6.22;1.50;;;;;;;;;;5030272;28;20052;-78
2022/07/09 14:39:17;;;;;;;2.38;1.30;;;;;;;;;;5069548;28;20060;-78